createdAt,value
2022-10-05T00:04:46.086Z,100669.47
2022-10-05T00:10:17.167Z,100664.34
2022-10-05T00:15:39.748Z,100664.34
2022-10-05T00:21:01.232Z,100660.94
2022-10-05T00:26:24.459Z,100650.69
2022-10-05T00:31:47.036Z,100651.53
2022-10-05T00:37:08.203Z,100663.47
2022-10-05T00:42:42.507Z,100650.69
2022-10-05T00:48:17.160Z,100642.97
2022-10-05T00:53:46.122Z,100655.75
2022-10-05T00:59:18.209Z,100654.88
2022-10-05T01:04:49.312Z,100647.19
2022-10-05T01:10:19.371Z,100656.59
2022-10-05T01:15:50.685Z,100657.41
2022-10-05T01:21:19.220Z,100648.00
2022-10-05T01:26:59.562Z,100643.78
2022-10-05T01:32:28.795Z,100643.72
2022-10-05T01:38:00.913Z,100637.72
2022-10-05T01:43:31.894Z,100620.69
2022-10-05T01:49:17.756Z,100608.72
2022-10-05T01:54:51.106Z,100614.69
2022-10-05T02:00:14.909Z,100616.38
2022-10-05T02:05:44.631Z,100609.53
2022-10-05T02:11:09.109Z,100612.94
2022-10-05T02:16:35.014Z,100592.47
2022-10-05T02:22:05.113Z,100634.22
2022-10-05T02:27:31.861Z,100622.31
2022-10-05T02:32:57.565Z,100618.03
2022-10-05T02:38:29.371Z,100623.06
2022-10-05T02:43:58.708Z,100626.50
2022-10-05T02:49:29.772Z,100624.75
2022-10-05T02:55:05.551Z,100615.31
2022-10-05T03:00:31.613Z,100607.66
2022-10-05T03:05:59.650Z,100599.09
2022-10-05T03:11:31.218Z,100588.88
2022-10-05T03:17:07.430Z,100600.81
2022-10-05T03:22:42.227Z,100586.28
2022-10-05T03:28:13.322Z,100585.47
2022-10-05T03:33:43.718Z,100595.69
2022-10-05T03:39:11.789Z,100599.09
2022-10-05T03:44:45.481Z,100605.94
2022-10-05T03:50:23.322Z,100609.31
2022-10-05T03:55:49.248Z,100608.47
2022-10-05T04:01:18.181Z,100608.38
2022-10-05T04:06:45.450Z,100600.72
2022-10-05T04:12:16.741Z,100601.63
2022-10-05T04:17:43.489Z,100611.06
2022-10-05T04:23:16.667Z,100616.19
2022-10-05T04:28:47.797Z,100616.00
2022-10-05T04:34:28.451Z,100612.53
2022-10-05T04:40:05.548Z,100612.56
2022-10-05T04:45:41.282Z,100625.22
2022-10-05T04:51:18.160Z,100636.13
2022-10-05T04:56:43.598Z,100632.66
2022-10-05T05:02:15.603Z,100638.59
2022-10-05T05:07:45.759Z,100634.25
2022-10-05T05:13:21.796Z,100636.69
2022-10-05T05:18:55.171Z,100640.88
2022-10-05T05:24:24.555Z,100650.22
2022-10-05T05:29:59.003Z,100639.16
2022-10-05T05:35:56.490Z,100647.63
2022-10-05T05:41:28.079Z,100640.03
2022-10-05T05:47:04.090Z,100649.41
2022-10-05T05:52:35.272Z,100648.66
2022-10-05T05:58:02.238Z,100655.53
2022-10-05T06:03:28.490Z,100656.44
2022-10-05T06:08:53.032Z,100659.06
2022-10-05T06:14:35.154Z,100658.31
2022-10-05T06:20:04.723Z,100654.19
2022-10-05T06:25:38.411Z,100650.03
2022-10-05T06:31:13.450Z,100647.63
2022-10-05T06:36:45.461Z,100641.81
2022-10-05T06:42:24.498Z,100635.97
2022-10-05T06:48:18.534Z,100638.59
2022-10-05T07:02:58.605Z,100622.56
2022-10-05T07:08:04.520Z,100625.13
2022-10-05T07:13:35.902Z,100625.97
2022-10-05T07:18:51.427Z,100620.84
2022-10-05T07:24:03.595Z,100612.28
2022-10-05T07:29:23.038Z,100607.91
2022-10-05T07:34:35.132Z,100607.81
2022-10-05T07:39:59.837Z,100597.41
2022-10-05T07:45:11.010Z,100601.53
2022-10-05T07:50:23.675Z,100595.38
2022-10-05T07:55:27.578Z,100598.53
2022-10-05T08:00:52.476Z,100597.25
2022-10-05T08:05:56.049Z,100604.56
2022-10-05T08:11:03.290Z,100605.94
2022-10-05T08:16:12.491Z,100593.72
2022-10-05T08:21:16.841Z,100586.63
2022-10-05T08:26:25.286Z,100585.56
2022-10-05T08:31:30.181Z,100569.72
2022-10-05T08:36:50.349Z,100563.50
2022-10-05T08:42:20.047Z,100567.13
2022-10-05T08:47:42.292Z,100561.72
2022-10-05T08:53:12.261Z,100559.88
2022-10-05T08:58:43.187Z,100554.78
2022-10-05T09:04:05.620Z,100550.69
2022-10-05T09:09:31.000Z,100544.28
2022-10-05T09:14:56.614Z,100541.09
2022-10-05T09:20:18.472Z,100525.91
2022-10-05T09:25:24.579Z,100527.78
2022-10-05T09:30:42.841Z,100524.59
2022-10-05T09:36:09.448Z,100519.44
2022-10-05T09:41:46.465Z,100522.28
2022-10-05T09:47:20.832Z,100514.84
2022-10-05T09:52:48.569Z,100506.91
2022-10-05T09:58:20.331Z,100509.28
2022-10-05T10:03:44.121Z,100495.75
2022-10-05T10:08:58.082Z,100495.13
2022-10-05T10:14:17.064Z,100498.84
2022-10-05T10:19:40.869Z,100488.56
2022-10-05T10:25:00.921Z,100478.41
2022-10-05T10:30:48.329Z,100481.50
2022-10-05T10:36:00.499Z,100472.16
2022-10-05T10:41:31.699Z,100468.56
2022-10-05T10:46:46.286Z,100469.28
2022-10-05T10:52:02.832Z,100471.13
2022-10-05T10:57:07.123Z,100465.31
2022-10-05T11:02:32.841Z,100463.88
2022-10-05T11:08:00.116Z,100459.75
2022-10-05T11:13:37.091Z,100461.00
2022-10-05T11:18:59.156Z,100448.50
2022-10-05T11:24:44.754Z,100452.69
2022-10-05T11:30:06.702Z,100444.88
2022-10-05T11:35:31.105Z,100436.34
2022-10-05T11:41:07.410Z,100438.81
2022-10-05T11:46:18.176Z,100432.69
2022-10-05T11:51:35.250Z,100425.16
2022-10-05T11:56:40.985Z,100425.44
2022-10-05T12:01:50.865Z,100422.69
2022-10-05T12:07:05.734Z,100427.78
2022-10-05T12:12:15.618Z,100421.56
2022-10-05T12:17:24.643Z,100417.25
2022-10-05T12:22:32.755Z,100417.34
2022-10-05T12:27:39.326Z,100404.44
2022-10-05T12:32:46.469Z,100406.78
2022-10-05T12:37:54.642Z,100406.09
2022-10-05T12:43:09.775Z,100396.88
2022-10-05T12:48:25.158Z,100400.78
2022-10-05T12:53:43.260Z,100391.09
2022-10-05T12:58:57.152Z,100385.41
2022-10-05T13:04:11.356Z,100378.41
2022-10-05T13:09:18.815Z,100375.59
2022-10-05T13:14:44.185Z,100371.25
2022-10-05T13:19:47.850Z,100374.94
2022-10-05T13:24:59.980Z,100379.94
2022-10-05T13:30:04.219Z,100372.66
2022-10-05T13:35:24.029Z,100374.25
2022-10-05T13:40:33.243Z,100366.06
2022-10-05T13:45:42.243Z,100377.31
2022-10-05T13:50:49.290Z,100364.63
2022-10-05T13:55:59.310Z,100372.13
2022-10-05T14:01:03.253Z,100364.31
2022-10-05T14:06:12.461Z,100368.94
2022-10-05T14:11:31.273Z,100360.03
2022-10-05T14:16:35.486Z,100360.50
2022-10-05T14:21:49.512Z,100364.63
2022-10-05T14:26:55.557Z,100356.63
2022-10-05T14:32:02.040Z,100353.53
2022-10-05T14:37:10.130Z,100369.50
2022-10-05T14:42:19.086Z,100361.88
2022-10-05T14:47:23.779Z,100365.63
2022-10-05T14:52:32.446Z,100354.50
2022-10-05T14:57:42.510Z,100357.94
2022-10-05T15:03:35.530Z,100359.28
2022-10-05T15:08:48.076Z,100358.34
2022-10-05T15:13:51.222Z,100359.22
2022-10-05T15:18:58.760Z,100356.78
2022-10-05T15:24:04.204Z,100365.41
2022-10-05T15:29:20.064Z,100363.09
2022-10-05T15:34:29.463Z,100363.16
2022-10-05T15:39:37.175Z,100361.75
2022-10-05T15:44:49.606Z,100360.97
2022-10-05T15:50:03.019Z,100353.59
2022-10-05T15:55:27.809Z,100364.22
2022-10-05T16:00:34.363Z,100364.09
2022-10-05T16:05:59.616Z,100374.22
2022-10-05T16:11:01.694Z,100364.53
2022-10-05T16:16:18.041Z,100369.22
2022-10-05T16:21:30.335Z,100368.69
2022-10-05T16:26:47.638Z,100366.50
2022-10-05T16:31:56.882Z,100371.03
2022-10-05T16:37:04.663Z,100378.34
2022-10-05T16:42:18.551Z,100381.03
2022-10-05T16:47:35.832Z,100384.66
2022-10-05T16:52:40.699Z,100388.97
2022-10-05T16:57:46.407Z,100388.88
2022-10-05T17:03:05.650Z,100396.28
2022-10-05T17:08:26.518Z,100397.50
2022-10-05T17:13:58.366Z,100411.69
2022-10-05T17:19:19.290Z,100404.00
2022-10-05T17:24:36.323Z,100391.25
2022-10-05T17:29:48.244Z,100395.00
2022-10-05T17:40:34.361Z,100386.75
2022-10-05T17:46:01.493Z,100381.69
2022-10-05T17:51:19.900Z,100383.56
2022-10-05T17:56:23.379Z,100381.13
2022-10-05T18:01:30.337Z,100379.72
2022-10-05T18:06:37.517Z,100385.00
2022-10-05T18:11:42.455Z,100381.63
2022-10-05T18:17:00.839Z,100381.66
2022-10-05T18:22:04.435Z,100382.69
2022-10-05T18:27:27.448Z,100386.28
2022-10-05T18:32:42.285Z,100396.69
2022-10-05T18:37:54.408Z,100402.97
2022-10-05T18:43:07.448Z,100409.13
2022-10-05T18:48:18.208Z,100408.34
2022-10-05T18:53:30.961Z,100411.81
2022-10-05T18:58:42.630Z,100416.09
2022-10-05T19:03:56.649Z,100419.78
2022-10-05T19:09:10.915Z,100417.09
2022-10-05T19:14:25.884Z,100426.69
2022-10-05T19:19:50.197Z,100433.53
2022-10-05T19:25:15.176Z,100432.75
2022-10-05T19:30:23.079Z,100433.84
2022-10-05T19:35:32.036Z,100446.69
2022-10-05T19:40:40.913Z,100446.88
2022-10-05T19:45:48.561Z,100454.66
2022-10-05T19:50:57.413Z,100455.63
2022-10-05T19:56:17.066Z,100459.16
2022-10-05T20:01:27.431Z,100466.97
2022-10-05T20:06:30.182Z,100462.63
2022-10-05T20:11:32.408Z,100468.66
2022-10-05T20:16:53.528Z,100468.75
2022-10-05T20:21:58.717Z,100475.59
2022-10-05T20:27:05.267Z,100489.38
2022-10-05T20:32:09.941Z,100490.25
2022-10-05T20:37:12.625Z,100503.06
2022-10-05T20:42:14.086Z,100496.38
2022-10-05T20:47:16.254Z,100508.19
2022-10-05T20:52:17.009Z,100507.56
2022-10-05T20:57:17.784Z,100511.19
2022-10-05T21:02:20.460Z,100524.03
2022-10-05T21:07:23.390Z,100525.97
2022-10-05T21:12:24.127Z,100539.78
2022-10-05T21:17:26.285Z,100538.16
2022-10-05T21:22:27.056Z,100536.53
2022-10-05T21:27:28.208Z,100536.59
2022-10-05T21:32:30.352Z,100533.09
2022-10-05T21:37:31.119Z,100536.63
2022-10-05T21:42:32.161Z,100536.59
2022-10-05T21:47:34.484Z,100528.94
2022-10-05T21:52:36.457Z,100534.06
2022-10-05T21:57:38.818Z,100534.91
2022-10-05T22:02:40.988Z,100542.56
2022-10-05T22:07:41.808Z,100529.63
2022-10-05T22:12:42.635Z,100528.75
2022-10-05T22:17:46.133Z,100546.63
2022-10-05T22:22:46.896Z,100556.56
2022-10-05T22:27:48.311Z,100557.38
2022-10-05T22:32:50.402Z,100557.44
2022-10-05T22:37:51.116Z,100556.06
2022-10-05T22:42:53.216Z,100553.28
2022-10-05T22:47:55.315Z,100573.75
2022-10-05T22:52:56.131Z,100579.34
2022-10-05T22:57:56.897Z,100571.63
2022-10-05T23:02:59.028Z,100583.47
2022-10-05T23:08:01.368Z,100593.94
2022-10-05T23:13:02.654Z,100597.81
2022-10-05T23:18:04.917Z,100611.25
2022-10-05T23:23:05.845Z,100607.34
2022-10-05T23:28:06.655Z,100612.59
2022-10-05T23:33:08.878Z,100627.88
2022-10-05T23:38:09.648Z,100634.19
2022-10-05T23:43:10.411Z,100633.38
2022-10-05T23:48:12.607Z,100641.72
2022-10-05T23:53:13.425Z,100649.78
2022-10-05T23:58:14.145Z,100649.56
